Time;durP1;ratioP1;P1;durP2;ratioP2;P2;SDS_P1;SDS_P2;PMS_P1;PMS_P2;Temp;Humidity;BMP_temperature;BMP_pressure;BME280_temperature;BME280_humidity;BME280_pressure;Samples;Min_cycle;Max_cycle;Signal;HPM_P1;HPM_P2
2022/04/18 00:03:06;;;;;;;20.60;11.30;;;;;;;6.39;52.03;99414.31;233294;1217;138874;-60
2022/04/18 00:08:08;;;;;;;19.80;11.70;;;;;;;6.37;52.33;99412.80;233395;1217;138289;-59
2022/04/18 00:13:12;;;;;;;23.20;12.50;;;;;;;6.31;51.96;99405.13;233448;1217;138714;-58
2022/04/18 00:18:15;;;;;;;20.20;12.20;;;;;;;6.23;52.19;99407.74;233331;1217;140156;-60
2022/04/18 00:23:18;;;;;;;22.20;12.40;;;;;;;6.11;52.17;99403.26;233411;1217;138427;-58
2022/04/18 00:28:21;;;;;;;20.90;11.30;;;;;;;6.05;52.39;99398.36;233353;1217;139385;-60
2022/04/18 00:33:25;;;;;;;18.10;10.20;;;;;;;5.98;52.36;99398.96;233326;1217;139062;-59
2022/04/18 00:38:31;;;;;;;18.50;11.50;;;;;;;5.89;52.33;99395.76;233440;1217;139253;-62
2022/04/18 00:43:42;;;;;;;19.70;10.80;;;;;;;5.81;52.95;99388.29;233464;1217;138279;-60
2022/04/18 00:48:46;;;;;;;22.80;11.60;;;;;;;5.77;52.77;99379.84;233302;1217;139337;-61
2022/04/18 00:53:53;;;;;;;20.10;10.00;;;;;;;5.71;52.59;99371.25;233345;1217;139103;-61
2022/04/18 00:58:57;;;;;;;18.10;9.30;;;;;;;5.60;52.39;99368.13;233396;1217;138556;-61
2022/04/18 01:04:01;;;;;;;18.40;9.80;;;;;;;5.54;52.60;99361.68;233376;1217;137853;-63
2022/04/18 01:09:04;;;;;;;18.30;8.80;;;;;;;5.56;52.61;99358.07;233247;1217;139024;-61
2022/04/18 01:14:08;;;;;;;13.50;7.50;;;;;;;5.64;52.33;99351.95;233290;1217;138674;-59
2022/04/18 01:19:26;;;;;;;18.10;9.70;;;;;;;5.75;52.63;99376.04;233259;1217;139621;-62
2022/04/18 01:30:10;;;;;;;16.00;8.80;;;;;;;5.80;52.62;99364.20;233305;1217;139311;-62
2022/04/18 01:35:14;;;;;;;15.60;8.60;;;;;;;5.83;52.41;99362.52;233472;1217;139419;-62
2022/04/18 01:40:17;;;;;;;16.80;8.60;;;;;;;5.88;52.36;99349.66;233328;1217;138834;-62
2022/04/18 01:45:21;;;;;;;16.60;8.60;;;;;;;5.89;52.59;99344.31;233270;1217;138427;-62
2022/04/18 01:50:36;;;;;;;17.60;8.80;;;;;;;5.88;52.14;99338.56;233318;1217;138241;-61
2022/04/18 01:55:39;;;;;;;14.30;8.40;;;;;;;5.87;52.12;99333.31;233433;1217;139035;-61
2022/04/18 02:00:43;;;;;;;13.50;8.80;;;;;;;5.87;52.62;99325.41;233289;1217;138288;-61
2022/04/18 02:05:49;;;;;;;16.40;8.60;;;;;;;5.86;52.65;99317.67;233286;1217;138576;-62
2022/04/18 02:10:53;;;;;;;16.40;8.60;;;;;;;5.81;52.65;99314.55;233382;1217;138519;-64
2022/04/18 02:16:04;;;;;;;16.50;8.50;;;;;;;5.74;52.77;99307.77;233305;1217;138843;-62
2022/04/18 02:21:11;;;;;;;17.60;8.70;;;;;;;5.70;52.90;99301.02;233381;1217;138784;-61
2022/04/18 02:26:15;;;;;;;17.10;9.60;;;;;;;5.70;52.60;99296.46;233326;1217;138976;-64
2022/04/18 02:31:19;;;;;;;17.30;8.80;;;;;;;5.71;52.84;99293.10;233304;1217;139542;-62
2022/04/18 02:36:22;;;;;;;17.50;9.00;;;;;;;5.80;52.98;99290.64;233220;1217;138998;-63
2022/04/18 02:41:26;;;;;;;16.70;8.90;;;;;;;5.84;53.04;99289.08;233408;1217;138842;-62
2022/04/18 02:46:30;;;;;;;16.40;8.60;;;;;;;5.87;53.11;99279.97;233305;1217;138903;-62
2022/04/18 02:51:38;;;;;;;14.70;8.10;;;;;;;5.86;52.81;99279.63;233234;1217;138470;-61
2022/04/18 02:56:42;;;;;;;17.50;9.00;;;;;;;5.87;52.93;99269.23;233405;1217;138265;-62
2022/04/18 03:01:46;;;;;;;18.70;9.40;;;;;;;5.92;53.10;99271.70;233374;1217;139521;-62
2022/04/18 03:06:49;;;;;;;15.40;8.70;;;;;;;5.99;53.32;99273.92;233311;1217;138602;-63
2022/04/18 03:11:53;;;;;;;16.10;9.30;;;;;;;5.98;53.23;99277.14;233336;1217;138263;-64
2022/04/18 03:16:56;;;;;;;15.70;9.80;;;;;;;5.92;53.42;99270.99;233472;1219;139629;-61
2022/04/18 03:22:00;;;;;;;19.80;9.60;;;;;;;5.88;53.69;99266.71;233337;1217;138867;-61
2022/04/18 03:27:05;;;;;;;21.70;12.00;;;;;;;5.89;53.87;99268.48;233337;1217;138466;-63
2022/04/18 03:32:11;;;;;;;17.20;10.60;;;;;;;5.88;53.35;99261.09;233312;1217;138493;-62
2022/04/18 03:42:36;;;;;;;19.20;10.70;;;;;;;5.91;53.21;99250.93;233366;1217;138769;-61
2022/04/18 03:47:42;;;;;;;18.40;10.60;;;;;;;5.92;53.35;99245.44;233292;1217;139692;-60
2022/04/18 03:52:45;;;;;;;21.60;9.50;;;;;;;5.89;53.11;99244.16;233397;1217;140021;-61
2022/04/18 03:58:20;;;;;;;19.70;10.80;;;;;;;5.88;53.07;99240.13;233320;1217;139473;-60
2022/04/18 04:03:26;;;;;;;20.30;10.30;;;;;;;5.86;53.36;99232.46;233359;1217;138406;-63
2022/04/18 04:08:31;;;;;;;;;;;;;;;5.84;53.23;99231.33;233327;1217;139103;-59
2022/04/18 04:13:37;;;;;;;15.50;8.30;;;;;;;5.84;53.04;99233.79;233326;1217;125057;-61
2022/04/18 04:19:07;;;;;;;16.70;8.90;;;;;;;5.82;52.80;99235.27;233333;1217;138500;-61
2022/04/18 04:24:10;;;;;;;18.40;9.80;;;;;;;5.80;52.92;99225.48;233269;1217;139779;-61
2022/04/18 04:29:18;;;;;;;19.70;10.70;;;;;;;5.81;52.76;99228.11;233526;1217;139112;-61
2022/04/18 04:34:30;;;;;;;20.10;11.20;;;;;;;5.80;52.71;99236.21;233302;1217;139499;-61
2022/04/18 04:39:51;;;;;;;21.60;12.00;;;;;;;5.84;52.73;99240.48;233396;1217;138734;-61
2022/04/18 04:44:55;;;;;;;23.20;11.30;;;;;;;5.88;53.12;99245.61;233402;1217;138568;-59
2022/04/18 04:50:13;;;;;;;19.70;10.80;;;;;;;5.95;53.24;99249.07;233372;1217;139710;-60
2022/04/18 04:55:22;;;;;;;19.90;11.20;;;;;;;5.99;53.72;99251.20;233311;1217;138594;-61
2022/04/18 05:00:25;;;;;;;19.90;11.40;;;;;;;6.02;53.61;99242.45;233434;1217;138718;-61
2022/04/18 05:05:58;;;;;;;20.70;11.30;;;;;;;6.06;53.50;99235.77;233173;1217;138873;-61
2022/04/18 05:11:21;;;;;;;18.90;11.40;;;;;;;6.13;53.40;99234.58;233397;1217;138656;-61
2022/04/18 05:16:28;;;;;;;21.60;12.80;;;;;;;6.23;53.26;99230.30;233363;1217;138791;-61
2022/04/18 05:21:53;;;;;;;21.00;12.00;;;;;;;6.26;53.07;99224.73;233395;1217;139412;-63
2022/04/18 05:27:02;;;;;;;20.50;12.10;;;;;;;6.26;53.13;99227.91;233372;1217;138503;-62
2022/04/18 05:32:07;;;;;;;25.50;13.70;;;;;;;6.23;53.11;99232.59;233240;1217;138416;-61
2022/04/18 05:37:13;;;;;;;22.10;13.10;;;;;;;6.27;52.78;99234.70;233321;1217;138508;-61
2022/04/18 05:42:36;;;;;;;123.20;79.70;;;;;;;6.32;53.22;99238.73;233274;1217;138822;-61
2022/04/18 05:47:43;;;;;;;27.40;15.80;;;;;;;6.53;53.22;99251.09;233222;1217;139781;-61
2022/04/18 05:52:47;;;;;;;23.50;13.10;;;;;;;6.66;52.78;99254.42;233213;1217;138393;-61
2022/04/18 05:58:09;;;;;;;23.00;13.60;;;;;;;6.69;52.57;99256.77;233352;1217;138922;-61
2022/04/18 06:03:12;;;;;;;21.70;12.90;;;;;;;6.78;52.71;99262.72;233305;1217;140147;-61
2022/04/18 06:08:16;;;;;;;20.90;11.60;;;;;;;6.80;53.05;99266.50;233323;1217;139031;-61
2022/04/18 06:13:27;;;;;;;55.30;38.40;;;;;;;6.82;53.39;99260.44;233356;1217;139455;-61
2022/04/18 06:18:31;;;;;;;26.60;14.90;;;;;;;6.92;53.68;99242.34;233363;1217;139161;-62
2022/04/18 06:23:36;;;;;;;25.30;14.50;;;;;;;7.02;53.06;99218.81;233367;1217;138997;-61
2022/04/18 06:29:00;;;;;;;29.30;15.60;;;;;;;7.06;53.14;99210.50;233268;1216;138328;-60
2022/04/18 06:34:03;;;;;;;27.50;15.40;;;;;;;7.09;52.92;99212.68;233317;1217;139155;-61
2022/04/18 06:39:07;;;;;;;145.90;98.50;;;;;;;7.13;52.98;99218.48;233447;1217;138404;-62
2022/04/18 06:44:10;;;;;;;45.30;26.30;;;;;;;7.34;53.06;99220.91;233402;1217;138628;-63
2022/04/18 06:49:26;;;;;;;;;;;;;;;7.48;52.62;99207.91;233387;1215;138746;-63
2022/04/18 06:54:49;;;;;;;31.60;18.30;;;;;;;7.58;52.73;99201.74;233327;1217;124500;-61
2022/04/18 06:59:53;;;;;;;28.60;15.80;;;;;;;7.76;52.15;99206.77;233226;1217;138715;-61
2022/04/18 07:04:58;;;;;;;24.70;15.10;;;;;;;7.82;51.76;99203.28;233391;1217;139560;-61
2022/04/18 07:10:02;;;;;;;21.20;13.50;;;;;;;7.89;51.69;99197.61;233533;1217;138531;-60
2022/04/18 07:15:06;;;;;;;25.00;13.30;;;;;;;7.96;51.33;99194.63;233329;1217;138584;-62
2022/04/18 07:20:10;;;;;;;19.90;11.50;;;;;;;8.04;50.96;99195.99;233366;1217;138483;-61
2022/04/18 07:25:14;;;;;;;18.50;10.40;;;;;;;8.12;50.78;99191.55;233385;1217;138964;-62
2022/04/18 07:30:21;;;;;;;20.00;11.60;;;;;;;8.22;50.67;99187.54;233336;1217;139685;-62
2022/04/18 07:35:25;;;;;;;16.80;10.50;;;;;;;8.32;50.60;99186.15;233406;1217;138830;-62
2022/04/18 07:40:55;;;;;;;18.10;10.10;;;;;;;8.41;50.46;99184.50;233501;1217;138742;-63
2022/04/18 07:46:03;;;;;;;33.60;21.70;;;;;;;8.54;50.43;99183.77;233344;1217;138459;-63
2022/04/18 07:56:33;;;;;;;13.20;7.80;;;;;;;8.91;50.03;99180.12;233384;1217;138479;-62
2022/04/18 08:01:37;;;;;;;9.70;6.60;;;;;;;9.08;49.67;99182.94;233417;1217;138181;-62
2022/04/18 08:06:40;;;;;;;9.40;5.60;;;;;;;9.21;49.21;99176.20;233334;1217;138192;-62
2022/04/18 08:11:48;;;;;;;10.10;6.20;;;;;;;9.34;48.62;99169.84;233437;1217;139329;-62
2022/04/18 08:16:58;;;;;;;9.30;5.50;;;;;;;9.47;48.44;99167.88;233243;1217;138204;-62
2022/04/18 08:22:10;;;;;;;56.20;40.80;;;;;;;9.60;48.17;99164.66;233232;1219;138719;-64
2022/04/18 08:27:39;;;;;;;13.70;9.00;;;;;;;10.32;50.37;99154.33;233268;1218;139167;-60
2022/04/18 08:32:46;;;;;;;11.40;5.70;;;;;;;11.00;48.66;99153.40;233348;1217;138723;-63
2022/04/18 08:37:49;;;;;;;10.70;6.00;;;;;;;10.96;47.03;99145.90;233407;1217;138670;-63
2022/04/18 08:43:11;;;;;;;6.80;4.20;;;;;;;10.93;46.87;99140.57;233369;1217;138892;-62
2022/04/18 08:53:36;;;;;;;8.30;4.80;;;;;;;10.63;45.44;99137.60;233504;1217;140647;-59
2022/04/18 08:58:40;;;;;;;7.90;4.50;;;;;;;10.49;45.99;99136.33;233400;1217;139191;-62
2022/04/18 09:03:46;;;;;;;6.30;4.30;;;;;;;10.55;46.08;99132.55;233386;1217;139037;-61
2022/04/18 09:08:55;;;;;;;5.70;3.60;;;;;;;10.68;45.82;99124.88;233397;1217;138821;-61
2022/04/18 09:14:10;;;;;;;6.10;3.90;;;;;;;10.74;45.45;99115.48;233377;1217;139923;-60
2022/04/18 09:19:16;;;;;;;4.70;3.70;;;;;;;10.70;45.08;99103.28;233243;1217;138342;-60
2022/04/18 09:24:34;;;;;;;5.70;3.90;;;;;;;10.58;44.85;99108.96;233365;1217;139528;-62
2022/04/18 09:29:46;;;;;;;6.30;4.10;;;;;;;10.50;44.91;99106.42;233393;1217;139422;-59
2022/04/18 09:35:02;;;;;;;6.60;4.60;;;;;;;10.42;45.16;99108.54;233452;1217;138878;-62
2022/04/18 09:40:10;;;;;;;6.40;4.40;;;;;;;10.38;45.18;99108.58;233397;1217;141583;-64
2022/04/18 09:45:14;;;;;;;7.40;4.40;;;;;;;10.38;44.89;99105.53;233379;1217;138820;-63
2022/04/18 09:55:54;;;;;;;6.80;4.60;;;;;;;10.40;44.78;99101.71;233354;1217;138667;-64
2022/04/18 10:01:00;;;;;;;5.50;4.00;;;;;;;10.40;44.69;99094.11;233312;1217;138722;-62
2022/04/18 10:06:08;;;;;;;3.50;2.80;;;;;;;10.61;44.48;99079.73;233490;1217;138709;-62
2022/04/18 10:11:11;;;;;;;5.00;2.90;;;;;;;10.97;43.72;99069.25;233353;1217;138840;-61
2022/04/18 10:16:15;;;;;;;5.00;2.60;;;;;;;11.14;43.23;99065.21;233365;1217;139744;-59
2022/04/18 10:21:27;;;;;;;8.30;5.70;;;;;;;11.28;43.16;99060.54;233294;1217;138627;-60
2022/04/18 10:26:54;;;;;;;6.40;3.50;;;;;;;11.71;43.31;99052.27;233197;1217;138598;-60
2022/04/18 10:32:04;;;;;;;9.30;5.50;;;;;;;12.18;42.83;99045.01;233231;1217;139525;-60
2022/04/18 10:37:08;;;;;;;4.40;3.10;;;;;;;12.46;42.24;99038.97;233136;1219;139741;-60
2022/04/18 10:42:38;;;;;;;6.00;3.00;;;;;;;12.38;41.13;99041.69;233009;1219;139862;-60
2022/04/18 10:48:11;;;;;;;4.10;2.50;;;;;;;12.13;40.62;99038.06;233414;1217;140034;-61
2022/04/18 10:53:15;;;;;;;190.30;133.50;;;;;;;11.89;40.81;99039.52;233298;1217;140299;-61
2022/04/18 10:58:26;;;;;;;26.00;15.50;;;;;;;11.75;41.24;99039.36;233388;1217;139568;-59
2022/04/18 11:03:35;;;;;;;6.30;3.50;;;;;;;11.68;40.97;99035.02;233436;1217;139133;-60
2022/04/18 11:08:39;;;;;;;3.60;2.30;;;;;;;11.55;40.15;99035.02;233510;1217;138793;-61
2022/04/18 11:13:43;;;;;;;15.50;5.50;;;;;;;11.48;40.69;99029.94;233319;1217;138594;-62
2022/04/18 11:19:14;;;;;;;78.50;54.70;;;;;;;11.84;41.28;99028.80;233441;1216;142221;-62
2022/04/18 11:24:54;;;;;;;5.90;3.70;;;;;;;12.20;41.18;99023.02;233404;1217;139242;-60
2022/04/18 11:30:03;;;;;;;3.80;2.80;;;;;;;12.34;40.40;99014.90;233430;1217;138790;-60
2022/04/18 11:35:09;;;;;;;4.10;2.60;;;;;;;12.51;40.42;99009.27;233345;1217;138624;-60
2022/04/18 11:40:14;;;;;;;4.20;2.50;;;;;;;12.66;40.08;99001.29;233272;1217;139755;-58
2022/04/18 11:45:26;;;;;;;3.70;2.50;;;;;;;12.71;39.28;98989.31;232906;1217;138677;-60
2022/04/18 11:50:32;;;;;;;6.80;2.40;;;;;;;12.55;38.91;98990.09;233208;1217;138426;-60
2022/04/18 11:55:49;;;;;;;3.30;2.30;;;;;;;12.29;39.29;98990.67;233315;1217;138623;-60
2022/04/18 12:06:47;;;;;;;5.30;2.40;;;;;;;11.76;39.25;98984.56;233583;1217;139117;-60
2022/04/18 12:11:50;;;;;;;;;;;;;;;11.62;39.55;98981.02;233333;1217;138268;-60
2022/04/18 12:16:53;;;;;;;2.60;1.90;;;;;;;11.52;39.01;98977.23;233373;1217;124879;-62
2022/04/18 12:21:57;;;;;;;3.50;2.00;;;;;;;11.53;38.68;98974.39;233062;1217;138405;-62
2022/04/18 12:27:00;;;;;;;6.90;2.70;;;;;;;11.51;38.79;98969.67;233303;1217;138902;-60
2022/04/18 12:32:03;;;;;;;5.60;2.70;;;;;;;11.46;38.88;98970.23;233356;1217;138960;-61
2022/04/18 12:37:10;;;;;;;3.70;2.50;;;;;;;11.33;39.05;98971.26;233306;1217;138645;-59
2022/04/18 12:42:14;;;;;;;5.20;2.90;;;;;;;11.13;39.27;98972.40;233279;1217;139002;-60
2022/04/18 12:47:20;;;;;;;4.70;2.80;;;;;;;11.02;39.34;98971.91;233209;1218;140473;-62
2022/04/18 12:52:26;;;;;;;6.30;3.00;;;;;;;10.92;39.60;98968.95;233260;1217;138538;-61
2022/04/18 12:57:31;;;;;;;;;;;;;;;10.85;39.74;98963.75;233418;1217;138458;-61
2022/04/18 13:02:35;;;;;;;4.20;2.70;;;;;;;10.80;39.71;98961.20;233445;1217;126554;-58
2022/04/18 13:07:40;;;;;;;6.30;3.10;;;;;;;10.76;39.89;98959.89;233495;1217;139005;-60
2022/04/18 13:12:43;;;;;;;5.40;2.80;;;;;;;10.76;40.10;98958.98;233392;1217;138785;-60
2022/04/18 13:17:57;;;;;;;4.20;2.90;;;;;;;10.79;40.18;98956.48;233362;1217;140079;-59
2022/04/18 13:23:03;;;;;;;3.30;2.50;;;;;;;10.83;40.25;98950.70;233446;1217;138673;-61
2022/04/18 13:28:07;;;;;;;3.60;2.70;;;;;;;10.95;40.15;98943.23;233304;1217;138677;-60
2022/04/18 13:33:10;;;;;;;4.20;2.50;;;;;;;11.36;40.19;98934.48;233212;1217;138399;-59
2022/04/18 13:38:13;;;;;;;2.90;2.20;;;;;;;12.16;40.83;98923.69;233281;1217;138821;-61
2022/04/18 13:43:16;;;;;;;3.90;2.40;;;;;;;12.80;39.67;98909.05;233293;1217;142477;-60
2022/04/18 13:48:21;;;;;;;3.80;2.50;;;;;;;13.15;39.15;98898.73;233450;1217;138705;-60
2022/04/18 13:53:24;;;;;;;4.30;2.70;;;;;;;13.41;38.51;98884.30;233278;1217;139389;-60
2022/04/18 13:58:32;;;;;;;4.70;2.80;;;;;;;13.96;38.58;98876.42;233376;1217;138932;-61
2022/04/18 14:03:37;;;;;;;3.80;2.30;;;;;;;14.58;38.06;98874.91;233335;1217;138493;-60
2022/04/18 14:08:40;;;;;;;3.30;1.90;;;;;;;14.87;37.10;98868.42;233386;1217;139331;-57
2022/04/18 14:13:44;;;;;;;6.60;2.30;;;;;;;15.05;36.62;98858.95;232592;1217;138925;-61
2022/04/18 14:24:14;;;;;;;5.90;2.60;;;;;;;15.09;35.70;98854.83;233560;1216;138865;-61
2022/04/18 14:29:17;;;;;;;3.60;2.30;;;;;;;14.97;35.63;98852.09;233415;1217;138506;-60
2022/04/18 14:34:20;;;;;;;3.90;2.10;;;;;;;14.63;35.56;98851.11;233294;1217;138721;-59
2022/04/18 14:39:24;;;;;;;4.70;2.50;;;;;;;14.23;35.11;98845.05;233324;1217;139225;-60
2022/04/18 14:44:27;;;;;;;4.40;2.30;;;;;;;13.85;34.69;98837.91;233338;1217;138594;-61
2022/04/18 14:49:29;;;;;;;4.10;2.30;;;;;;;13.53;34.28;98836.14;233268;1217;138564;-61
2022/04/18 14:54:33;;;;;;;3.20;2.00;;;;;;;13.29;34.56;98842.98;233512;1217;139225;-58
2022/04/18 14:59:37;;;;;;;4.60;2.20;;;;;;;13.13;35.03;98843.05;233261;1217;138327;-61
2022/04/18 15:04:40;;;;;;;3.50;2.20;;;;;;;12.92;35.04;98835.88;233294;1217;138460;-58
2022/04/18 15:09:43;;;;;;;6.90;2.50;;;;;;;12.83;35.42;98824.14;233329;1217;139045;-60
2022/04/18 15:14:46;;;;;;;4.10;2.50;;;;;;;12.77;35.07;98826.91;233409;1217;138773;-58
2022/04/18 15:19:49;;;;;;;3.20;1.90;;;;;;;12.68;35.44;98827.77;233380;1217;139756;-61
2022/04/18 15:24:52;;;;;;;3.10;2.30;;;;;;;12.54;35.17;98833.73;233426;1217;139437;-61
2022/04/18 15:35:18;;;;;;;3.40;2.20;;;;;;;12.23;34.98;98833.50;233395;1217;140570;-61
2022/04/18 15:40:21;;;;;;;4.60;2.40;;;;;;;12.09;35.45;98826.73;233306;1217;139824;-60
2022/04/18 15:45:24;;;;;;;5.00;2.20;;;;;;;11.97;35.33;98832.73;233311;1217;138257;-59
2022/04/18 15:50:27;;;;;;;3.40;2.30;;;;;;;11.86;35.65;98832.44;233270;1216;139386;-60
2022/04/18 15:55:30;;;;;;;4.50;2.70;;;;;;;11.74;35.80;98828.96;233298;1217;138749;-59
2022/04/18 16:00:34;;;;;;;4.50;2.20;;;;;;;11.66;36.07;98827.61;233481;1217;139038;-60
2022/04/18 16:05:38;;;;;;;4.60;2.60;;;;;;;11.57;35.73;98826.40;233415;1217;138420;-60
2022/04/18 16:10:41;;;;;;;5.20;2.70;;;;;;;11.48;35.55;98826.33;233318;1217;139599;-58
2022/04/18 16:15:44;;;;;;;5.50;3.00;;;;;;;11.39;36.10;98824.33;233232;1217;138820;-62
2022/04/18 16:20:47;;;;;;;701.70;465.70;;;;;;;11.31;36.05;98826.83;233357;1217;139800;-61
2022/04/18 16:25:50;;;;;;;32.90;17.70;;;;;;;11.40;36.78;98825.51;233341;1217;139470;-60
2022/04/18 16:36:15;;;;;;;5.90;3.30;;;;;;;11.44;36.16;98817.76;233270;1217;139496;-61
2022/04/18 16:46:40;;;;;;;5.90;3.40;;;;;;;11.17;36.85;98813.58;233243;1217;138576;-62
2022/04/18 16:51:44;;;;;;;4.90;3.40;;;;;;;11.07;37.45;98809.27;233330;1217;138631;-58
2022/04/18 16:56:47;;;;;;;7.20;3.70;;;;;;;11.00;37.28;98809.94;233257;1217;141524;-59
2022/04/18 17:01:50;;;;;;;7.20;3.10;;;;;;;10.93;37.45;98806.81;233415;1217;138580;-62
2022/04/18 17:06:53;;;;;;;4.70;3.10;;;;;;;10.89;37.34;98803.73;233342;1217;139245;-62
2022/04/18 17:11:56;;;;;;;4.20;3.00;;;;;;;10.84;37.40;98803.70;233334;1217;139065;-61
2022/04/18 17:16:59;;;;;;;5.40;3.40;;;;;;;10.80;37.83;98804.17;233349;1217;138652;-61
2022/04/18 17:22:03;;;;;;;5.20;3.20;;;;;;;10.75;38.05;98803.29;233295;1217;138961;-61
2022/04/18 17:27:10;;;;;;;72.30;56.30;;;;;;;10.71;38.32;98798.20;233249;1217;139067;-62
2022/04/18 17:32:16;;;;;;;13.60;10.20;;;;;;;10.72;38.23;98802.21;233282;1216;139504;-62
2022/04/18 17:37:19;;;;;;;6.10;4.20;;;;;;;10.69;38.29;98796.77;233408;1217;139779;-58
2022/04/18 17:42:23;;;;;;;4.90;2.80;;;;;;;10.64;38.27;98793.83;233250;1219;138634;-60
2022/04/18 17:47:26;;;;;;;180.00;124.30;;;;;;;10.63;38.03;98795.17;233240;1218;140242;-59
2022/04/18 17:52:31;;;;;;;10.30;6.30;;;;;;;10.73;37.75;98794.02;233170;1217;140157;-61
2022/04/18 17:57:34;;;;;;;7.00;4.10;;;;;;;10.69;38.26;98794.23;233271;1217;141520;-59
2022/04/18 18:02:37;;;;;;;6.10;3.40;;;;;;;10.62;38.56;98799.46;233201;1217;138770;-61
2022/04/18 18:07:40;;;;;;;5.80;3.60;;;;;;;10.55;38.48;98794.45;233213;1217;139027;-60
2022/04/18 18:12:43;;;;;;;7.00;3.20;;;;;;;10.51;38.28;98793.66;233283;1217;139340;-60
2022/04/18 18:17:47;;;;;;;6.90;4.30;;;;;;;10.47;38.50;98796.79;233193;1217;139124;-61
2022/04/18 18:22:50;;;;;;;10.00;4.80;;;;;;;10.41;38.20;98794.48;233154;1217;139048;-60
2022/04/18 18:27:54;;;;;;;6.80;4.10;;;;;;;10.36;38.01;98790.36;233221;1217;139538;-60
2022/04/18 18:32:57;;;;;;;9.30;4.10;;;;;;;10.33;37.94;98790.80;233227;1217;139353;-60
2022/04/18 18:38:02;;;;;;;121.10;86.40;;;;;;;10.30;38.10;98789.91;233241;1217;138637;-58
2022/04/18 18:43:05;;;;;;;12.00;8.40;;;;;;;10.38;38.24;98787.74;233293;1217;139246;-60
2022/04/18 18:48:13;;;;;;;8.80;5.00;;;;;;;10.40;37.73;98779.86;233109;1217;139140;-61
2022/04/18 18:53:18;;;;;;;8.10;4.70;;;;;;;10.38;37.65;98778.91;233122;1217;138973;-60
2022/04/18 18:58:21;;;;;;;9.00;5.20;;;;;;;10.32;37.45;98775.19;233101;1217;139018;-60
2022/04/18 19:03:24;;;;;;;40.40;28.80;;;;;;;10.31;37.67;98770.70;233338;1217;138800;-60
2022/04/18 19:08:28;;;;;;;22.10;13.10;;;;;;;10.33;38.04;98765.07;233205;1217;139189;-61
2022/04/18 19:13:31;;;;;;;12.30;7.50;;;;;;;10.34;37.85;98759.83;233215;1217;140072;-62
2022/04/18 19:29:17;;;;;;;12.20;7.60;;;;;;;10.11;38.98;98746.02;233141;1217;139533;-62
2022/04/18 19:34:21;;;;;;;12.20;7.20;;;;;;;10.01;39.54;98744.91;233229;1216;139532;-61
2022/04/18 19:39:24;;;;;;;12.60;7.50;;;;;;;9.93;39.68;98748.30;233163;1217;139315;-62
2022/04/18 19:44:27;;;;;;;12.20;7.20;;;;;;;9.84;39.98;98737.54;233143;1217;138956;-61
2022/04/18 19:49:30;;;;;;;17.60;9.20;;;;;;;9.75;40.60;98735.44;233058;1220;138902;-61
2022/04/18 19:54:34;;;;;;;16.00;8.80;;;;;;;9.68;40.83;98732.14;233277;1217;138183;-61
2022/04/18 19:59:37;;;;;;;18.40;9.60;;;;;;;9.62;41.56;98725.96;233224;1217;139257;-61
2022/04/18 20:04:41;;;;;;;17.40;8.40;;;;;;;9.57;41.73;98725.98;233280;1217;138358;-59
2022/04/18 20:09:44;;;;;;;16.60;7.90;;;;;;;9.50;41.75;98722.83;233201;1216;139798;-60
2022/04/18 20:14:47;;;;;;;11.60;7.90;;;;;;;9.46;41.37;98721.67;233243;1217;140561;-61
2022/04/18 20:19:50;;;;;;;17.60;8.40;;;;;;;9.46;41.73;98720.45;233237;1217;139174;-62
2022/04/18 20:24:53;;;;;;;15.80;7.50;;;;;;;9.43;42.11;98726.64;233316;1217;138806;-61
2022/04/18 20:29:56;;;;;;;9.60;6.00;;;;;;;9.42;42.15;98715.93;233231;1217;138806;-60
2022/04/18 20:34:59;;;;;;;9.70;5.50;;;;;;;9.45;41.86;98709.17;233263;1217;138801;-61
2022/04/18 20:40:06;;;;;;;11.40;5.10;;;;;;;9.44;41.11;98710.32;233456;1216;138881;-61
2022/04/18 20:45:10;;;;;;;12.40;6.70;;;;;;;9.39;40.73;98706.35;233258;1217;138539;-61
2022/04/18 20:50:14;;;;;;;12.10;6.60;;;;;;;9.35;40.77;98705.01;232782;1217;141488;-59
2022/04/18 21:00:38;;;;;;;10.60;6.30;;;;;;;9.21;40.85;98696.85;233359;1217;138879;-61
2022/04/18 21:05:41;;;;;;;10.70;6.20;;;;;;;9.13;40.86;98698.27;233298;1217;139066;-60
2022/04/18 21:10:45;;;;;;;14.70;6.90;;;;;;;9.07;41.02;98694.70;233365;1217;138966;-59
2022/04/18 21:15:48;;;;;;;10.90;6.10;;;;;;;9.06;41.30;98691.60;233243;1217;138918;-61
2022/04/18 21:20:53;;;;;;;13.00;5.50;;;;;;;9.02;41.28;98681.23;233333;1217;139945;-61
2022/04/18 21:25:56;;;;;;;10.60;5.60;;;;;;;8.90;41.38;98673.27;233302;1217;138753;-61
2022/04/18 21:30:59;;;;;;;10.20;4.90;;;;;;;8.83;41.57;98669.84;233486;1217;138494;-61
2022/04/18 21:36:03;;;;;;;9.70;4.70;;;;;;;8.75;41.68;98666.56;233229;1217;138560;-61
2022/04/18 21:41:07;;;;;;;9.00;4.50;;;;;;;8.71;41.87;98666.63;233218;1217;138409;-61
2022/04/18 21:46:10;;;;;;;8.30;4.60;;;;;;;8.69;41.84;98664.61;233316;1217;138552;-58
2022/04/18 21:51:14;;;;;;;7.30;4.60;;;;;;;8.66;42.04;98661.65;233356;1217;138801;-59
2022/04/18 21:56:20;;;;;;;8.10;4.00;;;;;;;8.62;42.10;98655.36;233181;1219;139426;-60
2022/04/18 22:01:23;;;;;;;9.70;4.60;;;;;;;8.61;42.40;98648.36;233636;1217;138144;-58
2022/04/18 22:06:27;;;;;;;8.30;3.90;;;;;;;8.56;42.42;98647.92;233259;1217;138531;-58
2022/04/18 22:11:31;;;;;;;8.90;3.90;;;;;;;8.54;42.26;98651.23;233344;1217;138634;-58
2022/04/18 22:16:34;;;;;;;8.50;4.20;;;;;;;8.54;42.48;98648.77;233302;1217;140112;-60
2022/04/18 22:27:00;;;;;;;6.50;3.80;;;;;;;8.53;43.10;98635.02;233220;1219;138933;-60
2022/04/18 22:32:03;;;;;;;8.20;4.10;;;;;;;8.50;43.61;98630.95;233262;1217;138250;-61
2022/04/18 22:37:06;;;;;;;7.60;4.50;;;;;;;8.48;43.77;98622.08;233417;1217;138733;-61
2022/04/18 22:42:09;;;;;;;8.40;4.70;;;;;;;8.44;43.87;98614.38;233597;1217;138737;-61
2022/04/18 22:47:15;;;;;;;7.50;4.20;;;;;;;8.37;43.70;98615.82;233407;1217;142850;-61
2022/04/18 22:52:22;;;;;;;8.90;4.10;;;;;;;8.36;43.97;98613.60;233470;1217;138953;-60
2022/04/18 22:57:25;;;;;;;8.30;4.80;;;;;;;8.35;44.40;98604.62;233244;1217;138538;-61
2022/04/18 23:02:28;;;;;;;8.70;4.90;;;;;;;8.29;44.53;98597.70;233467;1217;138166;-62
2022/04/18 23:07:38;;;;;;;8.00;4.90;;;;;;;8.23;44.99;98586.95;233396;1217;141848;-61
2022/04/18 23:12:41;;;;;;;10.10;5.70;;;;;;;8.20;45.09;98587.98;233266;1217;138239;-60
2022/04/18 23:17:44;;;;;;;10.30;6.60;;;;;;;8.19;44.94;98576.39;233290;1217;138543;-60
2022/04/18 23:22:48;;;;;;;9.80;6.00;;;;;;;8.18;44.82;98573.46;233315;1217;139157;-59
2022/04/18 23:27:51;;;;;;;11.60;6.30;;;;;;;8.18;45.24;98569.23;233503;1217;138134;-60
2022/04/18 23:32:54;;;;;;;13.50;7.00;;;;;;;8.19;45.24;98568.48;233436;1217;138132;-58
2022/04/18 23:37:58;;;;;;;12.90;6.80;;;;;;;8.20;45.34;98568.40;233329;1217;138846;-58
2022/04/18 23:43:01;;;;;;;12.40;6.60;;;;;;;8.19;45.58;98566.49;233623;1217;138364;-61
2022/04/18 23:48:05;;;;;;;12.10;6.60;;;;;;;8.21;45.54;98562.89;233385;1217;141476;-61
2022/04/18 23:53:08;;;;;;;11.80;6.30;;;;;;;8.22;45.10;98553.94;233367;1217;139148;-60
2022/04/18 23:58:12;;;;;;;14.40;6.20;;;;;;;8.22;45.37;98546.02;233388;1217;138579;-61
